createdAt,value
2019-04-28T00:00:45.039Z,70.16
2019-04-28T00:03:13.886Z,70.36
2019-04-28T00:05:43.819Z,70.55
2019-04-28T00:08:13.607Z,70.00
2019-04-28T00:10:43.327Z,69.93
2019-04-28T00:13:13.486Z,70.28
2019-04-28T00:15:44.467Z,69.80
2019-04-28T00:18:14.322Z,70.36
2019-04-28T00:21:00.965Z,70.09
2019-04-28T00:23:35.383Z,69.82
2019-04-28T00:26:04.792Z,69.91
2019-04-28T00:28:34.600Z,70.02
2019-04-28T00:31:04.461Z,70.52
2019-04-28T00:33:34.105Z,70.46
2019-04-28T00:36:03.858Z,70.32
2019-04-28T00:38:33.506Z,70.27
2019-04-28T00:41:03.294Z,70.20
2019-04-28T00:43:33.063Z,70.78
2019-04-28T00:46:04.496Z,70.86
2019-04-28T00:48:34.228Z,71.02
2019-04-28T00:51:03.917Z,70.65
2019-04-28T00:53:33.648Z,70.70
2019-04-28T00:56:03.730Z,70.74
2019-04-28T00:58:33.434Z,71.44
2019-04-28T01:01:02.895Z,71.50
2019-04-28T01:03:32.511Z,71.23
2019-04-28T01:06:02.064Z,71.15
2019-04-28T01:08:31.832Z,71.45
2019-04-28T01:11:01.854Z,71.59
2019-04-28T01:13:32.028Z,71.75
2019-04-28T01:16:13.502Z,72.23
2019-04-28T01:18:50.291Z,71.48
2019-04-28T01:21:20.372Z,71.70
2019-04-28T01:23:50.397Z,71.46
2019-04-28T01:26:20.140Z,71.36
2019-04-28T01:28:49.913Z,71.40
2019-04-28T01:31:30.053Z,71.48
2019-04-28T01:34:02.291Z,71.46
2019-04-28T01:36:32.403Z,71.43
2019-04-28T01:39:02.023Z,71.62
2019-04-28T01:41:31.676Z,71.46
2019-04-28T01:44:01.512Z,71.81
2019-04-28T01:46:31.218Z,71.75
2019-04-28T01:49:00.852Z,71.84
2019-04-28T01:51:30.629Z,71.63
2019-04-28T01:54:00.504Z,71.44
2019-04-28T01:56:30.469Z,72.38
2019-04-28T01:59:00.416Z,72.33
2019-04-28T02:01:30.334Z,71.81
2019-04-28T02:04:00.322Z,72.03
2019-04-28T02:06:30.155Z,72.72
2019-04-28T02:09:00.903Z,72.69
2019-04-28T02:11:30.584Z,72.68
2019-04-28T02:14:00.244Z,72.96
2019-04-28T02:16:29.842Z,72.83
2019-04-28T02:18:59.834Z,73.06
2019-04-28T02:21:44.125Z,73.01
2019-04-28T02:24:30.959Z,73.16
2019-04-28T02:27:01.561Z,73.06
2019-04-28T02:29:31.740Z,72.44
2019-04-28T02:32:02.361Z,71.99
2019-04-28T02:34:32.493Z,72.22
2019-04-28T02:37:02.300Z,73.01
2019-04-28T02:39:32.672Z,72.40
2019-04-28T02:42:02.406Z,72.78
2019-04-28T02:44:35.045Z,72.77
2019-04-28T02:47:03.735Z,73.04
2019-04-28T02:49:40.522Z,72.60
2019-04-28T02:52:30.896Z,72.07
2019-04-28T02:55:03.005Z,72.35
2019-04-28T02:57:32.663Z,73.06
2019-04-28T03:00:02.451Z,73.23
2019-04-28T03:02:32.287Z,74.21
2019-04-28T03:05:02.091Z,74.14
2019-04-28T03:07:31.832Z,73.76
2019-04-28T03:10:03.780Z,73.28
2019-04-28T03:12:33.264Z,73.10
2019-04-28T03:15:03.002Z,73.19
2019-04-28T03:17:32.777Z,72.82
2019-04-28T03:20:02.500Z,72.62
2019-04-28T03:22:33.657Z,72.50
2019-04-28T03:25:05.941Z,72.50
2019-04-28T03:27:42.768Z,71.90
2019-04-28T03:30:33.762Z,72.58
2019-04-28T03:33:10.981Z,72.55
2019-04-28T03:35:34.918Z,72.50
2019-04-28T03:38:04.610Z,72.08
2019-04-28T03:40:34.464Z,72.39
2019-04-28T03:43:04.389Z,72.72
2019-04-28T03:45:35.911Z,72.27
2019-04-28T03:48:05.716Z,72.68
2019-04-28T03:50:35.405Z,72.45
2019-04-28T03:53:05.159Z,72.22
2019-04-28T03:55:35.113Z,72.19
2019-04-28T03:58:05.361Z,72.04
2019-04-28T04:00:35.304Z,72.24
2019-04-28T04:03:05.188Z,72.16
2019-04-28T04:05:35.882Z,72.28
2019-04-28T04:08:06.103Z,72.10
2019-04-28T04:10:40.163Z,71.60
2019-04-28T04:13:11.144Z,71.17
2019-04-28T04:16:01.611Z,70.77
2019-04-28T04:18:41.479Z,71.15
2019-04-28T04:21:12.279Z,71.63
2019-04-28T04:23:43.222Z,71.55
2019-04-28T04:26:13.497Z,71.48
2019-04-28T04:28:43.632Z,71.28
2019-04-28T04:31:13.859Z,71.37
2019-04-28T04:33:44.204Z,71.50
2019-04-28T04:36:14.364Z,71.43
2019-04-28T04:38:46.463Z,71.28
2019-04-28T04:41:16.564Z,71.24
2019-04-28T04:43:47.888Z,71.21
2019-04-28T04:46:22.068Z,70.34
2019-04-28T04:48:51.711Z,70.33
2019-04-28T04:51:21.946Z,70.59
2019-04-28T04:53:52.333Z,70.93
2019-04-28T04:56:22.848Z,70.37
2019-04-28T04:58:53.120Z,70.28
2019-04-28T05:01:27.663Z,69.95
2019-04-28T05:03:59.671Z,70.51
2019-04-28T05:06:37.563Z,70.24
2019-04-28T05:09:11.944Z,70.74
2019-04-28T05:11:42.471Z,70.81
2019-04-28T05:14:12.818Z,71.01
2019-04-28T05:16:43.349Z,71.53
2019-04-28T05:19:13.549Z,71.45
2019-04-28T05:21:44.046Z,71.53
2019-04-28T05:24:31.198Z,70.98
2019-04-28T05:27:01.315Z,70.39
2019-04-28T05:29:31.557Z,70.13
2019-04-28T05:32:03.405Z,69.89
2019-04-28T05:34:33.144Z,70.17
2019-04-28T05:37:03.430Z,70.32
2019-04-28T05:39:33.721Z,70.39
2019-04-28T05:42:04.156Z,70.54
2019-04-28T05:44:37.404Z,70.40
2019-04-28T05:47:05.895Z,69.72
2019-04-28T05:49:43.637Z,69.79
2019-04-28T05:52:33.799Z,69.80
2019-04-28T05:55:20.326Z,69.59
2019-04-28T05:58:09.842Z,68.81
2019-04-28T06:00:41.945Z,68.75
2019-04-28T06:03:13.708Z,68.89
2019-04-28T06:05:43.935Z,68.54
2019-04-28T06:08:21.483Z,68.66
2019-04-28T06:10:51.798Z,68.79
2019-04-28T06:13:22.187Z,67.70
2019-04-28T06:15:52.569Z,68.43
2019-04-28T06:18:22.911Z,67.96
2019-04-28T06:20:53.219Z,68.73
2019-04-28T06:23:23.389Z,68.00
2019-04-28T06:25:53.640Z,68.16
2019-04-28T06:28:24.169Z,69.04
2019-04-28T06:30:54.413Z,68.75
2019-04-28T06:33:24.522Z,67.09
2019-04-28T06:35:54.762Z,66.87
2019-04-28T06:38:25.006Z,67.13
2019-04-28T06:40:55.154Z,67.06
2019-04-28T06:43:25.436Z,67.37
2019-04-28T06:45:55.866Z,66.38
2019-04-28T06:48:26.348Z,65.97
2019-04-28T06:50:56.790Z,66.17
2019-04-28T06:53:27.067Z,66.63
2019-04-28T06:55:57.455Z,66.65
2019-04-28T06:58:27.869Z,65.95
2019-04-28T07:00:58.289Z,66.77
2019-04-28T07:03:28.636Z,66.21
2019-04-28T07:05:58.911Z,66.56
2019-04-28T07:08:29.221Z,67.04
2019-04-28T07:10:59.385Z,66.51
2019-04-28T07:13:29.596Z,66.44
2019-04-28T07:15:59.704Z,66.12
2019-04-28T07:18:30.019Z,66.83
2019-04-28T07:21:01.819Z,66.56
2019-04-28T07:23:33.079Z,66.00
2019-04-28T07:26:03.442Z,66.28
2019-04-28T07:28:33.906Z,66.21
2019-04-28T07:31:04.537Z,66.98
2019-04-28T07:33:36.289Z,65.90
2019-04-28T07:36:07.294Z,66.69
2019-04-28T07:38:37.712Z,65.58
2019-04-28T07:41:08.127Z,65.56
2019-04-28T07:43:38.246Z,65.90
2019-04-28T07:46:08.421Z,65.89
2019-04-28T07:48:38.621Z,65.64
2019-04-28T07:51:08.772Z,65.59
2019-04-28T07:53:52.823Z,65.61
2019-04-28T07:56:23.403Z,65.57
2019-04-28T07:58:53.784Z,65.14
2019-04-28T08:01:24.151Z,64.63
2019-04-28T08:03:57.376Z,65.05
2019-04-28T08:06:27.095Z,64.47
2019-04-28T08:08:57.315Z,63.70
2019-04-28T08:11:27.523Z,63.42
2019-04-28T08:13:57.860Z,62.91
2019-04-28T08:16:28.173Z,64.18
2019-04-28T08:18:58.709Z,64.33
2019-04-28T08:21:28.816Z,65.20
2019-04-28T08:23:59.260Z,64.50
2019-04-28T08:26:29.646Z,64.73
2019-04-28T08:29:00.160Z,63.52
2019-04-28T08:31:50.040Z,64.13
2019-04-28T08:34:21.775Z,66.44
2019-04-28T08:36:52.007Z,66.27
2019-04-28T08:39:25.047Z,66.09
2019-04-28T08:41:54.630Z,66.78
2019-04-28T08:44:24.988Z,66.54
2019-04-28T08:46:55.535Z,66.77
2019-04-28T08:49:25.793Z,65.93
2019-04-28T08:51:55.988Z,65.36
2019-04-28T08:54:26.223Z,65.75
2019-04-28T08:56:56.593Z,65.87
2019-04-28T08:59:26.900Z,64.64
2019-04-28T09:01:57.126Z,65.62
2019-04-28T09:04:27.241Z,65.50
2019-04-28T09:06:57.462Z,63.87
2019-04-28T09:09:27.719Z,63.89
2019-04-28T09:11:58.135Z,64.16
2019-04-28T09:14:28.499Z,63.43
2019-04-28T09:16:58.774Z,62.31
2019-04-28T09:19:29.143Z,62.53
2019-04-28T09:21:59.621Z,62.88
2019-04-28T09:24:30.311Z,63.19
2019-04-28T09:27:00.939Z,61.86
2019-04-28T09:29:31.305Z,61.82
2019-04-28T09:32:01.346Z,61.36
2019-04-28T09:34:31.671Z,61.37
2019-04-28T09:37:02.093Z,58.75
2019-04-28T09:39:43.139Z,59.19
2019-04-28T09:42:31.415Z,59.00
2019-04-28T09:45:03.920Z,58.47
2019-04-28T09:47:34.080Z,59.89
2019-04-28T09:50:05.317Z,58.86
2019-04-28T09:52:35.696Z,57.66
2019-04-28T09:55:07.274Z,59.53
2019-04-28T09:57:37.814Z,58.01
2019-04-28T10:00:10.296Z,59.64
2019-04-28T10:02:40.836Z,59.38
2019-04-28T10:05:12.181Z,61.45
2019-04-28T10:07:42.389Z,61.89
2019-04-28T10:10:13.332Z,62.35
2019-04-28T10:13:37.785Z,61.41
2019-04-28T10:16:08.214Z,59.60
2019-04-28T10:18:38.408Z,58.08
2019-04-28T10:21:09.032Z,59.34
2019-04-28T10:23:39.372Z,59.78
2019-04-28T10:26:09.691Z,58.72
2019-04-28T10:28:40.268Z,59.72
2019-04-28T10:31:13.328Z,59.48
2019-04-28T10:33:43.252Z,60.22
2019-04-28T10:36:14.910Z,59.51
2019-04-28T10:38:46.590Z,58.51
2019-04-28T10:41:21.420Z,60.07
2019-04-28T10:43:51.682Z,59.71
2019-04-28T10:46:22.169Z,60.55
2019-04-28T10:48:52.482Z,61.15
2019-04-28T10:51:22.748Z,62.57
2019-04-28T10:53:53.146Z,62.55
2019-04-28T10:56:23.504Z,63.67
2019-04-28T10:58:55.208Z,63.88
2019-04-28T11:01:25.413Z,63.40
2019-04-28T11:03:57.521Z,63.72
2019-04-28T11:06:27.053Z,64.68
2019-04-28T11:09:09.012Z,64.78
2019-04-28T11:11:39.368Z,62.72
2019-04-28T11:14:09.470Z,62.34
2019-04-28T11:16:40.220Z,63.06
2019-04-28T11:19:11.437Z,62.17
2019-04-28T11:21:41.680Z,61.67
2019-04-28T11:24:12.003Z,60.55
2019-04-28T11:26:42.213Z,60.05
2019-04-28T11:29:12.559Z,59.62
2019-04-28T11:31:42.864Z,61.08
2019-04-28T11:34:20.657Z,59.45
2019-04-28T11:36:50.985Z,59.15
2019-04-28T11:39:22.775Z,59.40
2019-04-28T11:41:53.267Z,57.53
2019-04-28T11:44:23.409Z,58.03
2019-04-28T11:46:53.926Z,56.82
2019-04-28T11:49:24.083Z,55.57
2019-04-28T11:51:54.181Z,53.62
2019-04-28T11:54:24.610Z,54.08
2019-04-28T11:56:54.828Z,55.23
2019-04-28T11:59:25.551Z,57.39
2019-04-28T12:01:56.496Z,56.92
2019-04-28T12:04:27.096Z,55.86
2019-04-28T12:06:57.414Z,57.32
2019-04-28T12:09:27.484Z,56.04
2019-04-28T12:12:02.351Z,55.33
2019-04-28T12:14:34.051Z,55.41
2019-04-28T12:17:21.973Z,56.43
2019-04-28T12:19:56.713Z,57.20
2019-04-28T12:22:27.213Z,57.69
2019-04-28T12:24:57.491Z,58.36
2019-04-28T12:27:27.791Z,58.33
2019-04-28T12:29:58.108Z,58.06
2019-04-28T12:32:28.104Z,58.76
2019-04-28T12:34:58.474Z,58.28
2019-04-28T12:37:28.851Z,58.95
2019-04-28T12:39:59.213Z,59.93
2019-04-28T12:42:29.474Z,58.30
2019-04-28T12:44:59.586Z,57.88
2019-04-28T12:47:29.878Z,57.83
2019-04-28T12:50:10.452Z,57.21
2019-04-28T12:52:40.782Z,57.36
2019-04-28T12:55:11.334Z,56.02
2019-04-28T12:57:41.668Z,57.31
2019-04-28T13:00:22.647Z,57.26
2019-04-28T13:03:10.367Z,57.30
2019-04-28T13:05:42.258Z,57.48
2019-04-28T13:08:12.548Z,56.56
2019-04-28T13:10:42.920Z,57.03
2019-04-28T13:13:13.126Z,55.63
2019-04-28T13:15:43.477Z,54.87
2019-04-28T13:18:13.800Z,55.20
2019-04-28T13:20:43.922Z,56.11
2019-04-28T13:23:13.969Z,55.26
2019-04-28T13:25:44.262Z,55.06
2019-04-28T13:28:14.545Z,55.46
2019-04-28T13:30:45.156Z,55.50
2019-04-28T13:33:15.542Z,54.94
2019-04-28T13:35:45.935Z,54.93
2019-04-28T13:38:16.369Z,54.99
2019-04-28T13:40:46.780Z,55.87
2019-04-28T13:43:17.245Z,54.29
2019-04-28T13:45:47.563Z,54.99
2019-04-28T13:48:17.890Z,54.61
2019-04-28T13:50:49.115Z,54.29
2019-04-28T13:53:19.688Z,55.73
2019-04-28T13:55:51.629Z,54.37
2019-04-28T13:58:32.997Z,53.14
2019-04-28T14:01:04.706Z,53.42
2019-04-28T14:03:39.492Z,54.22
2019-04-28T14:06:28.004Z,53.56
2019-04-28T14:08:51.723Z,52.55
2019-04-28T14:11:21.962Z,52.54
2019-04-28T14:13:52.396Z,52.92
2019-04-28T14:16:22.583Z,53.75
2019-04-28T14:18:52.829Z,52.24
2019-04-28T14:21:23.225Z,52.85
2019-04-28T14:23:53.686Z,52.02
2019-04-28T14:26:23.915Z,52.58
2019-04-28T14:28:54.163Z,53.86
2019-04-28T14:31:24.601Z,55.49
2019-04-28T14:33:55.301Z,53.96
2019-04-28T14:36:25.488Z,53.47
2019-04-28T14:38:55.865Z,53.13
2019-04-28T14:41:26.199Z,52.85
2019-04-28T14:43:56.526Z,53.63
2019-04-28T14:46:27.062Z,53.47
2019-04-28T14:48:57.168Z,53.23
2019-04-28T14:51:27.508Z,53.27
2019-04-28T14:53:57.781Z,53.89
2019-04-28T14:56:27.981Z,54.37
2019-04-28T14:58:58.257Z,53.84
2019-04-28T15:01:46.450Z,54.15
2019-04-28T15:04:21.228Z,52.48
2019-04-28T15:06:59.302Z,52.05
2019-04-28T15:09:32.968Z,52.02
2019-04-28T15:12:04.746Z,51.50
2019-04-28T15:14:35.020Z,51.37
2019-04-28T15:17:05.354Z,52.07
2019-04-28T15:19:35.589Z,52.43
2019-04-28T15:22:06.022Z,52.52
2019-04-28T15:24:36.244Z,52.04
2019-04-28T15:27:06.624Z,50.64
2019-04-28T15:29:36.679Z,49.95
2019-04-28T15:32:06.993Z,51.03
2019-04-28T15:34:37.345Z,50.78
2019-04-28T15:37:09.868Z,50.19
2019-04-28T15:39:39.719Z,49.71
2019-04-28T15:42:10.001Z,49.15
2019-04-28T15:44:40.172Z,49.81
2019-04-28T15:47:10.285Z,48.53
2019-04-28T15:49:40.480Z,46.30
2019-04-28T15:52:10.721Z,43.35
2019-04-28T16:08:15.369Z,46.24
2019-04-28T16:10:45.572Z,47.01
2019-04-28T16:13:15.811Z,46.58
2019-04-28T16:15:46.096Z,46.62
2019-04-28T16:18:16.387Z,46.10
2019-04-28T16:20:46.718Z,46.42
2019-04-28T16:23:16.914Z,46.46
2019-04-28T16:25:47.186Z,45.78
2019-04-28T16:28:17.428Z,45.60
2019-04-28T16:30:47.557Z,46.71
2019-04-28T16:33:18.198Z,46.17
2019-04-28T16:35:48.604Z,47.27
2019-04-28T16:38:19.137Z,47.94
2019-04-28T16:40:57.916Z,48.19
2019-04-28T16:43:30.336Z,46.89
2019-04-28T16:46:00.474Z,47.61
2019-04-28T16:48:30.704Z,47.69
2019-04-28T16:51:01.025Z,48.24
2019-04-28T16:53:31.115Z,48.12
2019-04-28T16:56:09.263Z,48.49
2019-04-28T16:58:47.407Z,49.41
2019-04-28T17:01:19.136Z,49.33
2019-04-28T17:03:49.252Z,49.30
2019-04-28T17:06:19.787Z,49.95
2019-04-28T17:08:50.253Z,48.53
2019-04-28T17:11:20.595Z,48.38
2019-04-28T17:13:50.818Z,49.64
2019-04-28T17:16:20.934Z,50.18
2019-04-28T17:18:51.275Z,50.14
2019-04-28T17:21:21.553Z,50.87
2019-04-28T17:23:51.662Z,51.33
2019-04-28T17:26:22.214Z,51.60
2019-04-28T17:28:52.702Z,52.49
2019-04-28T17:31:23.164Z,52.75
2019-04-28T17:33:53.457Z,52.76
2019-04-28T17:36:23.727Z,53.25
2019-04-28T17:38:54.250Z,52.31
2019-04-28T17:41:25.122Z,52.60
2019-04-28T17:43:55.419Z,52.69
2019-04-28T17:46:25.817Z,52.90
2019-04-28T17:49:00.539Z,52.79
2019-04-28T17:51:31.109Z,52.87
2019-04-28T17:54:01.213Z,52.76
2019-04-28T17:56:31.514Z,52.33
2019-04-28T17:59:01.758Z,52.69
2019-04-28T18:01:49.743Z,52.67
2019-04-28T18:04:22.441Z,53.05
2019-04-28T18:07:00.463Z,53.17
2019-04-28T18:09:31.003Z,53.36
2019-04-28T18:12:00.980Z,53.13
2019-04-28T18:14:31.341Z,53.72
2019-04-28T18:17:06.534Z,53.22
2019-04-28T18:19:37.203Z,53.78
2019-04-28T18:22:07.522Z,54.19
2019-04-28T18:24:39.923Z,54.52
2019-04-28T18:27:09.573Z,55.17
2019-04-28T18:29:39.810Z,55.11
2019-04-28T18:32:17.626Z,55.72
2019-04-28T18:34:52.229Z,56.51
2019-04-28T18:37:24.722Z,56.65
2019-04-28T18:40:11.541Z,56.99
2019-04-28T18:42:49.114Z,57.43
2019-04-28T18:45:19.367Z,57.88
2019-04-28T18:47:49.648Z,58.44
2019-04-28T18:50:19.897Z,58.64
2019-04-28T18:52:50.137Z,59.38
2019-04-28T18:55:20.618Z,59.07
2019-04-28T18:57:50.874Z,59.47
2019-04-28T19:00:22.506Z,59.48
2019-04-28T19:02:52.795Z,59.99
2019-04-28T19:05:23.995Z,60.60
2019-04-28T19:08:02.320Z,60.69
2019-04-28T19:10:40.297Z,61.32
2019-04-28T19:13:11.505Z,62.00
2019-04-28T19:15:41.033Z,62.24
2019-04-28T19:18:18.557Z,62.24
2019-04-28T19:20:48.325Z,62.76
2019-04-28T19:23:18.023Z,62.70
2019-04-28T19:25:47.805Z,63.36
2019-04-28T19:28:20.329Z,62.88
2019-04-28T19:30:50.041Z,62.31
2019-04-28T19:33:19.608Z,62.83
2019-04-28T19:35:49.284Z,63.22
2019-04-28T19:38:18.860Z,63.53
2019-04-28T19:40:48.518Z,64.02
2019-04-28T19:43:18.275Z,64.74
2019-04-28T19:45:49.867Z,65.18
2019-04-28T19:48:19.508Z,65.91
2019-04-28T19:50:49.408Z,65.67
2019-04-28T19:53:19.142Z,66.66
2019-04-28T19:55:56.480Z,66.77
2019-04-28T19:58:44.028Z,66.64
2019-04-28T20:01:21.185Z,66.75
2019-04-28T20:03:50.779Z,66.87
2019-04-28T20:06:20.489Z,67.67
2019-04-28T20:08:50.085Z,67.82
2019-04-28T20:11:19.905Z,67.62
2019-04-28T20:13:49.596Z,68.16
2019-04-28T20:16:19.262Z,68.50
2019-04-28T20:18:49.152Z,68.16
2019-04-28T20:21:18.864Z,68.22
2019-04-28T20:23:48.480Z,67.68
2019-04-28T20:26:18.156Z,67.46
2019-04-28T20:28:47.871Z,67.60
2019-04-28T20:31:17.544Z,67.86
2019-04-28T20:33:47.333Z,68.00
2019-04-28T20:36:22.755Z,67.98
2019-04-28T20:38:53.941Z,68.25
2019-04-28T20:41:25.263Z,68.97
2019-04-28T20:43:56.144Z,69.00
2019-04-28T20:46:25.769Z,69.13
2019-04-28T20:48:55.596Z,69.17
2019-04-28T20:51:25.187Z,69.24
2019-04-28T20:53:54.840Z,69.47
2019-04-28T20:56:24.593Z,69.58
2019-04-28T20:58:54.316Z,70.02
2019-04-28T21:01:24.065Z,70.51
2019-04-28T21:03:53.650Z,70.50
2019-04-28T21:06:23.347Z,70.55
2019-04-28T21:08:52.917Z,70.43
2019-04-28T21:11:22.574Z,70.60
2019-04-28T21:13:52.272Z,70.63
2019-04-28T21:16:21.800Z,70.62
2019-04-28T21:18:51.333Z,70.54
2019-04-28T21:21:20.943Z,70.97
2019-04-28T21:23:50.515Z,70.92
2019-04-28T21:26:20.306Z,71.66
2019-04-28T21:28:51.148Z,71.82
2019-04-28T21:31:20.737Z,71.66
2019-04-28T21:33:50.587Z,72.00
2019-04-28T21:36:20.304Z,72.00
2019-04-28T21:38:50.689Z,72.13
2019-04-28T21:41:20.400Z,71.89
2019-04-28T21:43:51.752Z,71.71
2019-04-28T21:46:32.439Z,71.81
2019-04-28T21:49:03.756Z,72.29
2019-04-28T21:51:33.414Z,71.93
2019-04-28T21:54:03.136Z,72.02
2019-04-28T21:56:32.753Z,71.94
2019-04-28T21:59:02.520Z,72.21
2019-04-28T22:01:32.508Z,72.25
2019-04-28T22:04:02.180Z,72.18
2019-04-28T22:06:31.912Z,72.08
2019-04-28T22:09:01.498Z,72.10
2019-04-28T22:11:31.266Z,72.31
2019-04-28T22:14:00.823Z,72.24
2019-04-28T22:16:30.424Z,72.19
2019-04-28T22:19:00.466Z,72.41
2019-04-28T22:21:30.163Z,72.60
2019-04-28T22:24:10.153Z,72.85
2019-04-28T22:26:43.077Z,72.67
2019-04-28T22:29:13.650Z,72.99
2019-04-28T22:31:44.792Z,73.16
2019-04-28T22:34:15.882Z,72.94
2019-04-28T22:36:46.627Z,73.04
2019-04-28T22:39:16.912Z,73.00
2019-04-28T22:41:46.567Z,72.72
2019-04-28T22:44:16.208Z,72.86
2019-04-28T22:46:45.727Z,73.24
2019-04-28T22:49:15.512Z,73.25
2019-04-28T22:51:45.269Z,73.12
2019-04-28T22:54:19.621Z,73.27
2019-04-28T22:56:50.946Z,73.14
2019-04-28T22:59:25.104Z,73.31
2019-04-28T23:02:02.327Z,73.60
2019-04-28T23:04:33.764Z,73.52
2019-04-28T23:07:03.539Z,73.63
2019-04-28T23:09:33.545Z,73.56
2019-04-28T23:12:03.883Z,73.83
2019-04-28T23:14:33.517Z,73.79
2019-04-28T23:17:03.580Z,73.92
2019-04-28T23:19:35.020Z,73.68
2019-04-28T23:22:06.737Z,73.83
2019-04-28T23:24:36.495Z,73.94
2019-04-28T23:27:06.301Z,74.19
2019-04-28T23:29:35.996Z,74.14
2019-04-28T23:32:05.789Z,74.42
2019-04-28T23:34:35.525Z,73.85
2019-04-28T23:37:05.412Z,73.89
2019-04-28T23:39:35.186Z,73.87
2019-04-28T23:42:09.066Z,74.61
2019-04-28T23:44:38.652Z,74.46
2019-04-28T23:47:08.320Z,74.20
2019-04-28T23:49:38.038Z,74.30
2019-04-28T23:52:21.058Z,74.03
2019-04-28T23:54:52.383Z,73.82
2019-04-28T23:57:22.103Z,73.71
2019-04-28T23:59:51.737Z,73.88
